Time,TemperatureF,DewpointF,PressureIn,WindDirection,WindDirectionDegrees,WindSpeedMPH,WindSpeedGustMPH,Humidity,HourlyPrecipIn,Conditions,Clouds,dailyrainin,SolarRadiationWatts/m^2,SoftwareType,DateUTC
2013-10-09 00:04:00,51.0,50.0,-100.00,SE,132,1.0,3.0,97,0.00,,,0.00,0.000000,,2013-10-09 05:04:00,
2013-10-09 00:13:00,51.0,50.0,-100.00,SE,132,1.0,3.0,97,0.00,,,0.00,0.000000,,2013-10-09 05:13:00,
2013-10-09 00:22:00,51.0,50.0,-100.00,SE,132,1.0,3.0,97,0.00,,,0.00,0.000000,,2013-10-09 05:22:00,
2013-10-09 00:52:00,51.0,50.0,-100.00,ESE,122,2.0,4.0,97,0.00,,,0.00,0.000000,,2013-10-09 05:52:00,
2013-10-09 01:02:00,51.0,50.0,-100.00,ESE,122,2.0,4.0,97,0.00,,,0.00,0.000000,,2013-10-09 06:02:00,
2013-10-09 01:12:00,51.0,50.0,-100.00,ESE,122,2.0,4.0,97,0.00,,,0.00,0.000000,,2013-10-09 06:12:00,
2013-10-09 01:22:00,51.0,50.0,-100.00,ESE,122,2.0,4.0,97,0.00,,,0.00,0.000000,,2013-10-09 06:22:00,
2013-10-09 01:52:00,50.0,49.0,-100.00,East,101,1.0,2.0,98,0.00,,,0.00,0.000000,,2013-10-09 06:52:00,
2013-10-09 02:02:00,50.0,49.0,-100.00,East,101,1.0,2.0,98,0.00,,,0.00,0.000000,,2013-10-09 07:02:00,
2013-10-09 02:12:00,50.0,49.0,-100.00,East,101,1.0,2.0,98,0.00,,,0.00,0.000000,,2013-10-09 07:12:00,
2013-10-09 02:21:00,50.0,49.0,-100.00,East,101,1.0,2.0,98,0.00,,,0.00,0.000000,,2013-10-09 07:21:00,
2013-10-09 02:52:00,49.0,49.0,-100.00,ESE,116,1.0,4.0,99,0.00,,,0.00,0.000000,,2013-10-09 07:52:00,
2013-10-09 03:02:00,49.0,49.0,-100.00,ESE,116,1.0,4.0,99,0.00,,,0.00,0.000000,,2013-10-09 08:02:00,
2013-10-09 03:12:00,49.0,49.0,-100.00,ESE,116,1.0,4.0,99,0.00,,,0.00,0.000000,,2013-10-09 08:12:00,
2013-10-09 03:23:00,49.0,49.0,-100.00,ESE,116,1.0,4.0,99,0.00,,,0.00,0.000000,,2013-10-09 08:23:00,
2013-10-09 03:53:00,49.0,49.0,-100.00,SE,127,0.0,2.0,99,0.00,,,0.00,0.000000,,2013-10-09 08:53:00,
2013-10-09 04:02:00,49.0,49.0,-100.00,SE,127,0.0,2.0,99,0.00,,,0.00,0.000000,,2013-10-09 09:02:00,
2013-10-09 04:11:00,49.0,49.0,-100.00,SE,127,0.0,2.0,99,0.00,,,0.00,0.000000,,2013-10-09 09:11:00,
2013-10-09 04:22:00,49.0,49.0,-100.00,SE,127,0.0,2.0,99,0.00,,,0.00,0.000000,,2013-10-09 09:22:00,
2013-10-09 04:53:00,50.0,50.0,-100.00,East,100,2.0,5.0,99,0.00,,,0.00,0.000000,,2013-10-09 09:53:00,
2013-10-09 05:03:00,50.0,50.0,-100.00,East,100,2.0,5.0,99,0.00,,,0.00,0.000000,,2013-10-09 10:03:00,
2013-10-09 05:13:00,50.0,50.0,-100.00,East,100,2.0,5.0,99,0.00,,,0.00,0.000000,,2013-10-09 10:13:00,
2013-10-09 05:23:00,50.0,50.0,-100.00,East,100,2.0,5.0,99,0.00,,,0.00,0.000000,,2013-10-09 10:23:00,
2013-10-09 05:53:00,50.0,50.0,-100.00,East,100,2.0,4.0,99,0.00,,,0.00,0.000000,,2013-10-09 10:53:00,
2013-10-09 06:02:00,50.0,50.0,-100.00,East,100,2.0,4.0,99,0.00,,,0.00,0.000000,,2013-10-09 11:02:00,
2013-10-09 06:12:00,50.0,50.0,-100.00,East,100,2.0,4.0,99,0.00,,,0.00,0.000000,,2013-10-09 11:12:00,
2013-10-09 06:22:00,50.0,50.0,-100.00,East,100,2.0,4.0,99,0.00,,,0.00,0.000000,,2013-10-09 11:22:00,
2013-10-09 06:52:00,50.0,50.0,-100.00,East,97,1.0,4.0,99,0.00,,,0.00,0.000000,,2013-10-09 11:52:00,
2013-10-09 07:01:00,50.0,50.0,-100.00,East,97,1.0,4.0,99,0.00,,,0.00,0.000000,,2013-10-09 12:01:00,
2013-10-09 07:12:00,50.0,50.0,-100.00,East,97,1.0,4.0,99,0.00,,,0.00,0.000000,,2013-10-09 12:12:00,
2013-10-09 07:21:00,50.0,50.0,-100.00,East,97,1.0,4.0,99,0.00,,,0.00,0.000000,,2013-10-09 12:21:00,
2013-10-09 07:52:00,50.0,50.0,-100.00,East,93,2.0,3.0,99,0.00,,,0.00,7.000000,,2013-10-09 12:52:00,
2013-10-09 08:02:00,50.0,50.0,-100.00,East,93,2.0,3.0,99,0.00,,,0.00,7.000000,,2013-10-09 13:02:00,
2013-10-09 08:11:00,50.0,50.0,-100.00,East,93,2.0,3.0,99,0.00,,,0.00,7.000000,,2013-10-09 13:11:00,
2013-10-09 08:22:00,50.0,50.0,-100.00,East,93,2.0,3.0,99,0.00,,,0.00,7.000000,,2013-10-09 13:22:00,
2013-10-09 08:52:00,55.0,53.0,-100.00,ENE,69,2.0,4.0,93,0.00,,,0.00,108.000000,,2013-10-09 13:52:00,
2013-10-09 09:02:00,55.0,53.0,-100.00,ENE,69,2.0,4.0,93,0.00,,,0.00,108.000000,,2013-10-09 14:02:00,
2013-10-09 09:11:00,55.0,53.0,-100.00,ENE,69,2.0,4.0,93,0.00,,,0.00,108.000000,,2013-10-09 14:11:00,
2013-10-09 09:22:00,55.0,53.0,-100.00,ENE,69,2.0,4.0,93,0.00,,,0.00,108.000000,,2013-10-09 14:22:00,
2013-10-09 09:52:00,65.0,57.0,-100.00,SSE,154,5.0,9.0,76,0.00,,,0.00,385.000000,,2013-10-09 14:52:00,
2013-10-09 10:02:00,65.0,57.0,-100.00,SSE,154,5.0,9.0,76,0.00,,,0.00,385.000000,,2013-10-09 15:02:00,
2013-10-09 10:11:00,65.0,57.0,-100.00,SSE,154,5.0,9.0,76,0.00,,,0.00,385.000000,,2013-10-09 15:11:00,
2013-10-09 10:22:00,65.0,57.0,-100.00,SSE,154,5.0,9.0,76,0.00,,,0.00,385.000000,,2013-10-09 15:22:00,
2013-10-09 10:53:00,71.0,59.0,-100.00,SSE,158,4.0,13.0,67,0.00,,,0.00,567.000000,,2013-10-09 15:53:00,
2013-10-09 11:03:00,71.0,59.0,-100.00,SSE,158,4.0,13.0,67,0.00,,,0.00,567.000000,,2013-10-09 16:03:00,
2013-10-09 11:13:00,71.0,59.0,-100.00,SSE,158,4.0,13.0,67,0.00,,,0.00,567.000000,,2013-10-09 16:13:00,
2013-10-09 11:24:00,71.0,59.0,-100.00,SSE,158,4.0,13.0,67,0.00,,,0.00,567.000000,,2013-10-09 16:24:00,
2013-10-09 11:53:00,75.0,62.0,-100.00,SSW,207,3.0,10.0,63,0.00,,,0.00,706.000000,,2013-10-09 16:53:00,
2013-10-09 12:03:00,75.0,62.0,-100.00,SSW,207,3.0,10.0,63,0.00,,,0.00,706.000000,,2013-10-09 17:03:00,
2013-10-09 12:12:00,75.0,62.0,-100.00,SSW,207,3.0,10.0,63,0.00,,,0.00,706.000000,,2013-10-09 17:12:00,
2013-10-09 12:22:00,75.0,62.0,-100.00,SSW,207,3.0,10.0,63,0.00,,,0.00,706.000000,,2013-10-09 17:22:00,
2013-10-09 12:52:00,76.0,62.0,-100.00,South,184,3.0,7.0,61,0.00,,,0.00,784.000000,,2013-10-09 17:52:00,
2013-10-09 13:02:00,76.0,62.0,-100.00,South,184,3.0,7.0,61,0.00,,,0.00,784.000000,,2013-10-09 18:02:00,
2013-10-09 13:12:00,76.0,62.0,-100.00,South,184,3.0,7.0,61,0.00,,,0.00,784.000000,,2013-10-09 18:12:00,
2013-10-09 13:22:00,76.0,62.0,-100.00,South,184,3.0,7.0,61,0.00,,,0.00,784.000000,,2013-10-09 18:22:00,
2013-10-09 13:52:00,78.0,63.0,-100.00,South,189,3.0,6.0,60,0.00,,,0.00,620.000000,,2013-10-09 18:52:00,
2013-10-09 14:02:00,78.0,63.0,-100.00,South,189,3.0,6.0,60,0.00,,,0.00,620.000000,,2013-10-09 19:02:00,
2013-10-09 14:11:00,78.0,63.0,-100.00,South,189,3.0,6.0,60,0.00,,,0.00,620.000000,,2013-10-09 19:11:00,
2013-10-09 14:22:00,78.0,63.0,-100.00,South,189,3.0,6.0,60,0.00,,,0.00,620.000000,,2013-10-09 19:22:00,
2013-10-09 14:53:00,76.0,63.0,-100.00,West,276,1.0,5.0,65,0.00,,,0.00,333.000000,,2013-10-09 19:53:00,
2013-10-09 15:02:00,76.0,63.0,-100.00,West,276,1.0,5.0,65,0.00,,,0.00,333.000000,,2013-10-09 20:02:00,
2013-10-09 15:11:00,76.0,63.0,-100.00,West,276,1.0,5.0,65,0.00,,,0.00,333.000000,,2013-10-09 20:11:00,
2013-10-09 15:22:00,76.0,63.0,-100.00,West,276,1.0,5.0,65,0.00,,,0.00,333.000000,,2013-10-09 20:22:00,
2013-10-09 15:52:00,78.0,62.0,-100.00,East,91,3.0,6.0,58,0.00,,,0.00,,,2013-10-09 20:52:00,
2013-10-09 16:02:00,78.0,62.0,-100.00,East,91,3.0,6.0,58,0.00,,,0.00,,,2013-10-09 21:02:00,
2013-10-09 16:11:00,78.0,62.0,-100.00,East,91,3.0,6.0,58,0.00,,,0.00,,,2013-10-09 21:11:00,
2013-10-09 16:22:00,78.0,62.0,-100.00,East,91,3.0,6.0,58,0.00,,,0.00,,,2013-10-09 21:22:00,
2013-10-09 16:54:00,78.0,61.0,-100.00,ESE,118,3.0,7.0,55,0.00,,,0.00,394.000000,,2013-10-09 21:54:00,
2013-10-09 17:03:00,78.0,61.0,-100.00,ESE,118,3.0,7.0,55,0.00,,,0.00,394.000000,,2013-10-09 22:03:00,
2013-10-09 17:13:00,78.0,61.0,-100.00,ESE,118,3.0,7.0,55,0.00,,,0.00,394.000000,,2013-10-09 22:13:00,
2013-10-09 17:24:00,78.0,61.0,-100.00,ESE,118,3.0,7.0,55,0.00,,,0.00,394.000000,,2013-10-09 22:24:00,
2013-10-09 17:53:00,79.0,66.0,-100.00,East,100,0.0,4.0,64,0.00,,,0.00,228.000000,,2013-10-09 22:53:00,
2013-10-09 18:03:00,79.0,66.0,-100.00,East,100,0.0,4.0,64,0.00,,,0.00,228.000000,,2013-10-09 23:03:00,
2013-10-09 18:12:00,79.0,66.0,-100.00,East,100,0.0,4.0,64,0.00,,,0.00,228.000000,,2013-10-09 23:12:00,
2013-10-09 18:22:00,79.0,66.0,-100.00,East,100,0.0,4.0,64,0.00,,,0.00,228.000000,,2013-10-09 23:22:00,
2013-10-09 18:53:00,68.0,65.0,-100.00,ENE,62,0.0,0.0,89,0.00,,,0.00,40.000000,,2013-10-09 23:53:00,
2013-10-09 19:02:00,68.0,65.0,-100.00,ENE,62,0.0,0.0,89,0.00,,,0.00,40.000000,,2013-10-10 00:02:00,
2013-10-09 19:12:00,68.0,65.0,-100.00,ENE,62,0.0,0.0,89,0.00,,,0.00,40.000000,,2013-10-10 00:12:00,
2013-10-09 19:22:00,68.0,65.0,-100.00,ENE,62,0.0,0.0,89,0.00,,,0.00,40.000000,,2013-10-10 00:22:00,
2013-10-09 19:52:00,65.0,64.0,-100.00,East,99,0.0,0.0,97,0.00,,,0.00,1.000000,,2013-10-10 00:52:00,
2013-10-09 20:02:00,65.0,64.0,-100.00,East,99,0.0,0.0,97,0.00,,,0.00,1.000000,,2013-10-10 01:02:00,
2013-10-09 20:11:00,65.0,64.0,-100.00,East,99,0.0,0.0,97,0.00,,,0.00,1.000000,,2013-10-10 01:11:00,
2013-10-09 20:21:00,65.0,64.0,-100.00,East,99,0.0,0.0,97,0.00,,,0.00,1.000000,,2013-10-10 01:21:00,
2013-10-09 20:52:00,63.0,63.0,-100.00,East,95,0.0,0.0,99,0.00,,,0.00,0.000000,,2013-10-10 01:52:00,
2013-10-09 21:02:00,63.0,63.0,-100.00,East,95,0.0,0.0,99,0.00,,,0.00,0.000000,,2013-10-10 02:02:00,
2013-10-09 21:12:00,63.0,63.0,-100.00,East,95,0.0,0.0,99,0.00,,,0.00,0.000000,,2013-10-10 02:12:00,
2013-10-09 21:22:00,63.0,63.0,-100.00,East,95,0.0,0.0,99,0.00,,,0.00,0.000000,,2013-10-10 02:22:00,
2013-10-09 22:12:00,62.0,62.0,-100.00,East,91,1.0,3.0,99,0.00,,,0.00,0.000000,,2013-10-10 03:12:00,
2013-10-09 22:22:00,62.0,62.0,-100.00,East,91,1.0,3.0,99,0.00,,,0.00,0.000000,,2013-10-10 03:22:00,
2013-10-09 22:55:00,61.0,61.0,-100.00,ESE,102,0.0,3.0,100,0.00,,,0.00,0.000000,,2013-10-10 03:55:00,
2013-10-09 23:04:00,61.0,61.0,-100.00,ESE,102,0.0,3.0,100,0.00,,,0.00,0.000000,,2013-10-10 04:04:00,
2013-10-09 23:13:00,61.0,61.0,-100.00,ESE,102,0.0,3.0,100,0.00,,,0.00,0.000000,,2013-10-10 04:13:00,
2013-10-09 23:24:00,61.0,61.0,-100.00,ESE,102,0.0,3.0,100,0.00,,,0.00,0.000000,,2013-10-10 04:24:00,
2013-10-09 23:54:00,60.0,60.0,-100.00,ESE,102,1.0,2.0,100,0.00,,,-99.99,0.000000,,2013-10-10 04:54:00,